Time;durP1;ratioP1;P1;durP2;ratioP2;P2;SDS_P1;SDS_P2;PMS_P1;PMS_P2;Temp;Humidity;BMP_temperature;BMP_pressure;BME280_temperature;BME280_humidity;BME280_pressure;Samples;Min_cycle;Max_cycle;Signal;HPM_P1;HPM_P2
2024/01/09 07:47:48;;;;;;;14.20;6.00;;;;;;;-5.02;100.00;101769.80;102065;1290;1002995;-66
2024/01/09 07:50:36;;;;;;;13.50;4.50;;;;;;;-4.99;100.00;101770.88;104880;1267;59296;-64
2024/01/09 07:53:23;;;;;;;13.10;5.00;;;;;;;-4.92;100.00;101766.13;104769;1266;1002826;-64
2024/01/09 07:56:18;;;;;;;11.40;5.00;;;;;;;-4.81;100.00;101768.36;106540;1265;68874;-65
2024/01/09 07:59:05;;;;;;;10.50;4.20;;;;;;;-4.66;100.00;101763.52;105504;1267;69537;-64
2024/01/09 08:01:54;;;;;;;10.70;3.70;;;;;;;-4.51;100.00;101758.33;105134;1266;207284;-65
2024/01/09 08:04:42;;;;;;;12.40;4.80;;;;;;;-4.35;100.00;101767.35;104897;1264;59333;-66
2024/01/09 08:07:28;;;;;;;10.60;4.50;;;;;;;-4.20;100.00;101762.30;105338;1263;60899;-66
2024/01/09 08:10:16;;;;;;;12.90;3.80;;;;;;;-4.07;100.00;101765.55;105238;1263;71182;-66
2024/01/09 08:13:03;;;;;;;10.50;4.30;;;;;;;-3.95;100.00;101756.83;106262;1253;68438;-66
2024/01/09 08:15:50;;;;;;;10.10;3.80;;;;;;;-3.83;100.00;101753.47;105952;1256;73263;-65
2024/01/09 08:18:39;;;;;;;10.80;4.20;;;;;;;-3.72;100.00;101758.93;105614;1251;1003007;-67
2024/01/09 08:21:26;;;;;;;11.00;4.20;;;;;;;-3.65;100.00;101756.38;106235;1251;60925;-67
2024/01/09 08:24:18;;;;;;;9.50;3.90;;;;;;;-3.58;100.00;101755.74;105381;1251;1016238;-66
2024/01/09 08:27:05;;;;;;;12.10;3.90;;;;;;;-3.50;100.00;101759.78;105822;1251;67275;-64
2024/01/09 08:29:52;;;;;;;10.90;4.70;;;;;;;-3.47;100.00;101764.84;106435;1255;74092;-65
2024/01/09 08:32:39;;;;;;;10.30;4.10;;;;;;;-3.44;100.00;101762.96;106947;1255;59337;-64
2024/01/09 08:35:27;;;;;;;9.70;4.30;;;;;;;-3.40;100.00;101764.55;106207;1251;60501;-68
2024/01/09 08:38:14;;;;;;;10.60;3.80;;;;;;;-3.37;100.00;101769.78;106097;1256;71114;-65
2024/01/09 08:41:02;;;;;;;12.40;4.90;;;;;;;-3.35;100.00;101758.87;106019;1255;67917;-65
2024/01/09 08:43:49;;;;;;;13.30;5.30;;;;;;;-3.33;100.00;101763.91;105845;1255;74210;-64
2024/01/09 08:46:37;;;;;;;11.90;4.70;;;;;;;-3.30;100.00;101761.86;106064;1251;59763;-63
2024/01/09 08:49:23;;;;;;;13.00;4.90;;;;;;;-3.28;100.00;101764.30;106292;1251;59292;-64
2024/01/09 08:52:10;;;;;;;13.40;4.80;;;;;;;-3.26;100.00;101766.21;106243;1251;70164;-65
2024/01/09 08:54:57;;;;;;;14.70;5.20;;;;;;;-3.25;100.00;101762.22;105245;1257;1003440;-67
2024/01/09 08:57:45;;;;;;;13.10;5.40;;;;;;;-3.21;100.00;101764.69;106549;1251;73531;-64
2024/01/09 09:00:32;;;;;;;9.00;4.00;;;;;;;-3.17;100.00;101765.58;106008;1256;59346;-67
2024/01/09 09:03:19;;;;;;;13.90;4.80;;;;;;;-3.13;100.00;101770.98;105967;1251;60957;-65
2024/01/09 09:06:07;;;;;;;14.00;5.20;;;;;;;-3.08;100.00;101771.36;106004;1251;71537;-64
2024/01/09 09:08:54;;;;;;;13.00;4.70;;;;;;;-3.06;100.00;101768.07;106117;1256;69260;-66
2024/01/09 09:11:42;;;;;;;11.70;4.90;;;;;;;-3.08;100.00;101770.66;106158;1251;73206;-66
2024/01/09 09:14:29;;;;;;;15.20;5.40;;;;;;;-3.05;100.00;101773.11;106614;1251;59323;-67
2024/01/09 09:17:18;;;;;;;10.50;4.20;;;;;;;-3.00;100.00;101773.67;105959;1256;59843;-68
2024/01/09 09:20:06;;;;;;;14.10;6.10;;;;;;;-2.99;100.00;101773.49;106271;1251;72915;-65
2024/01/09 09:22:53;;;;;;;12.50;5.90;;;;;;;-2.93;100.00;101775.61;106316;1256;69383;-66
2024/01/09 09:25:40;;;;;;;13.20;5.60;;;;;;;-2.87;100.00;101776.00;105878;1251;73210;-64
2024/01/09 09:28:27;;;;;;;12.50;5.50;;;;;;;-2.83;100.00;101779.14;105899;1256;59283;-64
2024/01/09 09:31:31;;;;;;;13.40;6.20;;;;;;;-2.83;100.00;101779.32;106201;1251;61682;-64
2024/01/09 09:34:18;;;;;;;14.90;6.20;;;;;;;-2.81;100.00;101776.71;105530;1251;1002180;-66
2024/01/09 09:37:06;;;;;;;13.70;6.60;;;;;;;-2.77;100.00;101773.95;107200;1251;66463;-65
2024/01/09 09:39:53;;;;;;;11.00;4.80;;;;;;;-2.72;100.00;101775.54;106238;1256;71779;-70
2024/01/09 09:42:43;;;;;;;13.60;5.90;;;;;;;-2.69;100.00;101780.59;106479;1251;59247;-66
2024/01/09 09:45:32;;;;;;;12.80;5.50;;;;;;;-2.70;100.00;101770.87;106102;1251;61690;-65
2024/01/09 09:48:23;;;;;;;13.20;5.10;;;;;;;-2.66;100.00;101772.28;106010;1254;71887;-66
2024/01/09 09:51:11;;;;;;;11.60;4.90;;;;;;;-2.62;100.00;101769.85;106018;1251;67122;-66
2024/01/09 09:54:02;;;;;;;15.10;6.60;;;;;;;-2.56;100.00;101765.00;106206;1256;74114;-64
2024/01/09 09:56:49;;;;;;;14.50;6.50;;;;;;;-2.50;100.00;101766.25;105981;1255;59208;-66
2024/01/09 09:59:36;;;;;;;17.70;7.30;;;;;;;-2.45;100.00;101770.60;106241;1251;60465;-65
2024/01/09 10:02:26;;;;;;;15.50;6.40;;;;;;;-2.42;100.00;101774.63;106619;1251;71735;-64
2024/01/09 10:05:16;;;;;;;17.20;7.10;;;;;;;-2.39;100.00;101769.75;106152;1251;66318;-64
2024/01/09 10:08:07;;;;;;;15.60;7.00;;;;;;;-2.34;100.00;101768.90;106143;1255;73165;-65
2024/01/09 10:10:54;;;;;;;18.30;7.70;;;;;;;-2.31;100.00;101769.60;105153;1253;1002599;-66
2024/01/09 10:13:43;;;;;;;17.90;6.60;;;;;;;-2.32;100.00;101762.30;106030;1254;59602;-66
2024/01/09 10:16:48;;;;;;;18.10;7.50;;;;;;;-2.33;100.00;101758.66;106042;1257;71854;-66
2024/01/09 10:19:38;;;;;;;20.50;9.20;;;;;;;-2.31;100.00;101759.70;106457;1257;68194;-67
2024/01/09 10:22:29;;;;;;;19.70;7.80;;;;;;;-2.28;100.00;101762.48;106020;1257;73053;-65
2024/01/09 10:25:19;;;;;;;16.30;7.50;;;;;;;-2.25;100.00;101761.28;105832;1251;59203;-66
2024/01/09 10:28:08;;;;;;;23.10;9.80;;;;;;;-2.23;100.00;101758.33;106016;1251;60604;-65
2024/01/09 10:30:55;;;;;;;17.80;7.80;;;;;;;-2.23;100.00;101751.02;106012;1252;70700;-66
2024/01/09 10:33:42;;;;;;;20.60;7.30;;;;;;;-2.23;100.00;101744.75;105431;1257;1002864;-65
2024/01/09 10:36:31;;;;;;;23.80;8.70;;;;;;;-2.24;100.00;101747.02;106084;1257;73275;-64
2024/01/09 10:39:18;;;;;;;15.90;7.10;;;;;;;-2.19;100.00;101747.73;106176;1257;59360;-64
2024/01/09 10:42:09;;;;;;;16.80;7.90;;;;;;;-2.18;100.00;101744.95;106006;1256;59396;-67
2024/01/09 10:44:59;;;;;;;15.10;6.50;;;;;;;-2.15;100.00;101739.57;105997;1251;71912;-69
2024/01/09 10:47:47;;;;;;;14.30;6.00;;;;;;;-2.15;100.00;101740.43;107077;1255;69312;-71
2024/01/09 10:50:34;;;;;;;20.20;6.90;;;;;;;-2.15;100.00;101741.81;105977;1266;74215;-69
2024/01/09 10:53:26;;;;;;;20.10;7.80;;;;;;;-2.13;100.00;101739.39;106389;1256;59342;-70
2024/01/09 10:56:18;;;;;;;17.60;7.70;;;;;;;-2.11;100.00;101741.30;106848;1251;61292;-72
2024/01/09 10:59:05;;;;;;;21.30;8.10;;;;;;;-2.08;100.00;101741.66;106210;1255;71924;-73
2024/01/09 11:01:53;;;;;;;16.30;8.10;;;;;;;-2.05;100.00;101738.36;105964;1252;66653;-70
2024/01/09 11:04:43;;;;;;;17.60;6.70;;;;;;;-2.06;100.00;101733.48;106716;1255;73003;-68
2024/01/09 11:07:32;;;;;;;17.90;7.70;;;;;;;-2.07;100.00;101730.36;106387;1251;59233;-71
2024/01/09 11:10:21;;;;;;;14.20;6.80;;;;;;;-2.10;100.00;101739.22;106454;1254;60769;-70
2024/01/09 11:13:09;;;;;;;18.50;7.70;;;;;;;-2.10;100.00;101738.34;106031;1251;72673;-67
2024/01/09 11:15:57;;;;;;;12.90;5.40;;;;;;;-2.07;100.00;101735.58;106436;1251;68360;-69
2024/01/09 11:18:46;;;;;;;18.00;7.80;;;;;;;-2.01;100.00;101733.32;105983;1251;73879;-68
2024/01/09 11:21:33;;;;;;;17.60;8.10;;;;;;;-1.97;100.00;101726.01;106224;1251;59156;-68
2024/01/09 11:24:27;;;;;;;21.70;8.60;;;;;;;-1.95;100.00;101722.18;106390;1252;60344;-67
2024/01/09 11:27:17;;;;;;;18.80;7.70;;;;;;;-1.91;100.00;101722.36;105978;1255;71808;-70
2024/01/09 11:30:05;;;;;;;20.00;8.80;;;;;;;-1.88;100.00;101720.27;106290;1251;68265;-68
2024/01/09 11:32:52;;;;;;;21.00;9.30;;;;;;;-1.87;100.00;101718.19;105986;1251;71253;-68
2024/01/09 11:35:42;;;;;;;18.60;8.20;;;;;;;-1.86;100.00;101716.80;105760;1252;59310;-70
2024/01/09 11:38:29;;;;;;;19.60;9.10;;;;;;;-1.82;100.00;101711.23;106319;1256;61797;-70
2024/01/09 11:41:16;;;;;;;19.40;7.60;;;;;;;-1.86;100.00;101714.71;106561;1255;71907;-66
2024/01/09 11:44:15;;;;;;;16.50;6.50;;;;;;;-1.88;100.00;101708.10;106520;1256;68023;-64
2024/01/09 11:47:02;;;;;;;20.90;7.30;;;;;;;-1.88;100.00;101712.09;107115;1251;72147;-63
2024/01/09 11:49:49;;;;;;;18.60;7.30;;;;;;;-1.85;100.00;101712.45;106547;1251;59349;-68
2024/01/09 11:52:39;;;;;;;15.00;7.20;;;;;;;-1.84;100.00;101715.92;106491;1254;60722;-68
2024/01/09 11:55:26;;;;;;;16.50;7.20;;;;;;;-1.87;100.00;101713.83;106090;1251;72729;-63
2024/01/09 11:58:15;;;;;;;17.50;7.20;;;;;;;-1.93;100.00;101706.54;106136;1255;68401;-65
2024/01/09 12:01:04;;;;;;;19.60;8.10;;;;;;;-1.96;100.00;101703.75;106046;1257;72110;-65
2024/01/09 12:10:47;;;;;;;19.50;8.40;;;;;;;-1.83;100.00;101701.66;101726;1291;1002932;-64
2024/01/09 12:13:37;;;;;;;19.70;7.20;;;;;;;-1.82;100.00;101697.13;105216;1267;59289;-63
2024/01/09 12:16:29;;;;;;;20.50;8.50;;;;;;;-1.79;100.00;101703.92;105066;1269;59252;-65
2024/01/09 12:19:17;;;;;;;17.50;7.20;;;;;;;-1.76;100.00;101699.58;105183;1266;70080;-66
2024/01/09 12:22:05;;;;;;;18.90;7.60;;;;;;;-1.77;100.00;101699.92;104876;1269;68447;-65
2024/01/09 12:24:55;;;;;;;19.00;8.50;;;;;;;-1.76;100.00;101697.64;104935;1264;264705;-64
2024/01/09 12:27:47;;;;;;;16.70;7.50;;;;;;;-1.73;100.00;101699.73;105633;1254;59225;-63
2024/01/09 12:30:36;;;;;;;15.00;7.00;;;;;;;-1.70;100.00;101700.78;105395;1263;60171;-66
2024/01/09 12:33:25;;;;;;;22.20;9.70;;;;;;;-1.67;100.00;101699.21;105435;1264;69914;-66
2024/01/09 12:36:16;;;;;;;19.20;8.90;;;;;;;-1.64;100.00;101697.12;105281;1258;67078;-64
2024/01/09 12:39:08;;;;;;;23.60;10.60;;;;;;;-1.60;100.00;101696.77;105489;1261;73244;-66
2024/01/09 12:42:12;;;;;;;21.20;8.90;;;;;;;-1.54;100.00;101698.50;105647;1257;59549;-66
2024/01/09 12:45:01;;;;;;;21.20;8.90;;;;;;;-1.48;100.00;101690.83;105393;1256;61894;-65
2024/01/09 12:47:49;;;;;;;16.80;7.20;;;;;;;-1.43;100.00;101692.56;105515;1257;70601;-65
2024/01/09 12:50:38;;;;;;;22.90;9.80;;;;;;;-1.47;100.00;101681.24;105423;1257;68005;-66
2024/01/09 12:53:32;;;;;;;24.30;10.30;;;;;;;-1.52;100.00;101673.61;105518;1256;73205;-66
2024/01/09 12:56:21;;;;;;;23.70;10.50;;;;;;;-1.48;100.00;101674.98;105371;1259;59271;-65
2024/01/09 12:59:12;;;;;;;24.20;9.20;;;;;;;-1.52;100.00;101676.39;105612;1258;60653;-63
2024/01/09 13:02:00;;;;;;;26.10;11.00;;;;;;;-1.54;100.00;101677.42;105562;1254;72661;-68
2024/01/09 13:04:50;;;;;;;23.60;10.30;;;;;;;-1.58;100.00;101679.70;105820;1254;68160;-66
2024/01/09 13:07:38;;;;;;;18.10;8.40;;;;;;;-1.64;100.00;101677.10;105950;1253;74069;-65
2024/01/09 13:10:26;;;;;;;21.60;9.50;;;;;;;-1.68;100.00;101677.80;105750;1254;59250;-65
2024/01/09 13:13:14;;;;;;;18.30;7.40;;;;;;;-1.74;100.00;101673.46;105242;1256;1002992;-65
2024/01/09 13:16:06;;;;;;;19.40;8.90;;;;;;;-1.83;100.00;101673.47;105630;1254;72074;-68
2024/01/09 13:18:55;;;;;;;21.90;9.50;;;;;;;-1.88;100.00;101678.52;105761;1254;67345;-67
2024/01/09 13:21:44;;;;;;;25.30;11.40;;;;;;;-1.95;100.00;101675.91;105524;1258;72648;-66
2024/01/09 13:24:36;;;;;;;23.70;8.80;;;;;;;-1.96;100.00;101682.00;105799;1259;59179;-67
2024/01/09 13:27:26;;;;;;;20.10;8.60;;;;;;;-1.99;100.00;101676.61;105496;1257;60532;-66
2024/01/09 13:30:15;;;;;;;27.40;11.30;;;;;;;-2.02;100.00;101678.17;105801;1253;71979;-67
2024/01/09 13:33:24;;;;;;;24.90;11.30;;;;;;;-2.03;100.00;101669.14;105479;1257;67739;-68
2024/01/09 13:36:13;;;;;;;22.50;9.30;;;;;;;-2.00;100.00;101671.73;104840;1257;1003664;-66
2024/01/09 13:39:09;;;;;;;24.80;10.80;;;;;;;-1.99;100.00;101661.83;107632;1257;59241;-66
2024/01/09 13:41:58;;;;;;;23.50;9.60;;;;;;;-1.96;100.00;101659.73;107226;1259;59545;-66
2024/01/09 13:44:49;;;;;;;20.80;8.80;;;;;;;-1.97;100.00;101656.77;106014;1257;70520;-68
2024/01/09 13:47:37;;;;;;;22.10;9.70;;;;;;;-1.96;100.00;101661.11;105586;1262;67277;-70
2024/01/09 13:50:30;;;;;;;21.20;8.90;;;;;;;-1.99;100.00;101659.73;105808;1260;72809;-68
2024/01/09 13:53:38;;;;;;;18.60;6.70;;;;;;;-2.01;100.00;101663.22;105764;1259;60235;-66
2024/01/09 13:56:29;;;;;;;20.70;8.30;;;;;;;-2.06;100.00;101669.64;106051;1258;59745;-66
2024/01/09 13:59:19;;;;;;;27.50;11.30;;;;;;;-2.10;100.00;101661.13;105904;1253;71786;-66
2024/01/09 14:02:11;;;;;;;25.90;9.80;;;;;;;-2.10;100.00;101661.64;105524;1253;68494;-68
2024/01/09 14:04:59;;;;;;;25.50;9.90;;;;;;;-2.13;100.00;101663.21;105494;1253;73150;-65
2024/01/09 14:07:48;;;;;;;20.50;9.50;;;;;;;-2.17;100.00;101664.25;105977;1254;59253;-64
2024/01/09 14:10:37;;;;;;;21.10;9.00;;;;;;;-2.21;100.00;101667.90;105734;1257;61948;-66
2024/01/09 14:13:26;;;;;;;25.70;10.20;;;;;;;-2.27;100.00;101668.94;105926;1254;72923;-68
2024/01/09 14:16:14;;;;;;;26.20;10.50;;;;;;;-2.31;100.00;101667.71;105882;1253;68490;-67
2024/01/09 14:19:03;;;;;;;26.40;10.80;;;;;;;-2.32;100.00;101665.80;105961;1254;74034;-68
2024/01/09 14:21:51;;;;;;;24.70;11.00;;;;;;;-2.34;100.00;101664.23;105913;1254;59324;-67
2024/01/09 14:24:40;;;;;;;27.00;11.10;;;;;;;-2.35;100.00;101665.27;105747;1259;59774;-67
2024/01/09 14:27:29;;;;;;;23.70;8.90;;;;;;;-2.38;100.00;101660.06;105801;1254;72094;-67
2024/01/09 14:30:18;;;;;;;24.40;8.80;;;;;;;-2.42;100.00;101659.02;105991;1253;68171;-66
2024/01/09 14:33:07;;;;;;;25.40;9.30;;;;;;;-2.44;100.00;101664.59;105956;1254;71891;-66
2024/01/09 14:35:59;;;;;;;23.60;9.00;;;;;;;-2.47;100.00;101665.79;106059;1254;60709;-66
2024/01/09 14:38:48;;;;;;;27.30;10.20;;;;;;;-2.51;100.00;101665.94;105960;1253;62092;-67
2024/01/09 14:41:36;;;;;;;23.00;9.40;;;;;;;-2.53;100.00;101664.55;106014;1253;72851;-66
2024/01/09 14:44:26;;;;;;;20.20;8.60;;;;;;;-2.53;100.00;101660.91;105261;1259;1002902;-67
2024/01/09 14:47:14;;;;;;;21.10;9.70;;;;;;;-2.52;100.00;101659.52;105656;1253;71522;-66
2024/01/09 14:50:03;;;;;;;23.20;10.10;;;;;;;-2.50;100.00;101661.77;107179;1253;59144;-65
2024/01/09 14:52:51;;;;;;;23.50;9.40;;;;;;;-2.49;100.00;101660.05;105596;1260;59228;-67
2024/01/09 14:55:40;;;;;;;27.10;11.80;;;;;;;-2.48;100.00;101663.01;105456;1257;70743;-66
2024/01/09 14:58:30;;;;;;;24.10;11.20;;;;;;;-2.47;100.00;101659.17;105436;1262;68337;-66
2024/01/09 15:01:18;;;;;;;30.40;11.60;;;;;;;-2.47;100.00;101661.96;105173;1259;73199;-67
2024/01/09 15:04:08;;;;;;;25.00;9.90;;;;;;;-2.46;100.00;101658.66;105320;1259;59246;-67
2024/01/09 15:06:57;;;;;;;28.30;11.20;;;;;;;-2.46;100.00;101659.17;106036;1259;60831;-68
2024/01/09 15:09:51;;;;;;;24.00;10.30;;;;;;;-2.44;100.00;101659.35;105755;1259;71923;-64
2024/01/09 15:12:40;;;;;;;22.90;10.30;;;;;;;-2.44;100.00;101656.77;105297;1260;66872;-64
2024/01/09 15:15:28;;;;;;;29.30;10.70;;;;;;;-2.45;100.00;101659.52;105435;1262;73383;-67
2024/01/09 15:18:17;;;;;;;27.70;11.80;;;;;;;-2.46;100.00;101663.86;105457;1261;59437;-66
2024/01/09 15:21:06;;;;;;;25.90;10.60;;;;;;;-2.47;100.00;101660.56;105230;1259;60448;-64
2024/01/09 15:23:54;;;;;;;30.40;12.90;;;;;;;-2.47;100.00;101655.70;105473;1262;72241;-67
2024/01/09 15:26:42;;;;;;;23.80;10.30;;;;;;;-2.46;100.00;101648.23;105259;1258;67428;-64
2024/01/09 15:29:30;;;;;;;23.10;9.80;;;;;;;-2.46;100.00;101652.92;105417;1259;73102;-67
2024/01/09 15:32:19;;;;;;;23.00;10.20;;;;;;;-2.45;100.00;101650.66;105788;1255;59512;-65
2024/01/09 15:35:11;;;;;;;26.90;11.70;;;;;;;-2.44;100.00;101649.97;105530;1254;61626;-64
2024/01/09 15:38:00;;;;;;;23.50;8.80;;;;;;;-2.44;100.00;101651.54;105547;1259;70637;-67
2024/01/09 15:40:48;;;;;;;27.20;11.10;;;;;;;-2.44;100.00;101654.15;105550;1255;67362;-64
2024/01/09 15:43:37;;;;;;;26.10;10.20;;;;;;;-2.42;100.00;101649.27;105614;1254;74419;-64
2024/01/09 15:46:27;;;;;;;22.90;9.80;;;;;;;-2.39;100.00;101651.02;105567;1259;59251;-65
2024/01/09 15:49:16;;;;;;;22.50;10.70;;;;;;;-2.38;100.00;101649.45;105826;1254;60184;-65
2024/01/09 15:52:07;;;;;;;24.90;10.50;;;;;;;-2.35;100.00;101645.98;105437;1253;71151;-65
2024/01/09 15:54:55;;;;;;;19.70;9.20;;;;;;;-2.33;100.00;101646.15;105702;1259;67312;-70
2024/01/09 15:57:43;;;;;;;21.80;9.60;;;;;;;-2.34;100.00;101645.98;105272;1259;73304;-66
2024/01/09 16:00:33;;;;;;;21.10;7.60;;;;;;;-2.34;100.00;101642.50;105485;1263;59428;-66
2024/01/09 16:03:23;;;;;;;24.10;8.60;;;;;;;-2.34;100.00;101639.19;105304;1263;59764;-67
2024/01/09 16:06:13;;;;;;;23.40;9.80;;;;;;;-2.35;100.00;101642.33;106039;1263;73125;-65
2024/01/09 16:09:03;;;;;;;19.40;8.50;;;;;;;-2.34;100.00;101647.55;105321;1264;68234;-68
2024/01/09 16:11:53;;;;;;;21.70;9.10;;;;;;;-2.33;100.00;101643.90;105330;1264;71364;-65
2024/01/09 16:14:44;;;;;;;22.90;9.50;;;;;;;-2.30;100.00;101647.04;105568;1263;59663;-65
2024/01/09 16:17:33;;;;;;;19.00;7.60;;;;;;;-2.27;100.00;101644.41;106360;1264;60114;-66
2024/01/09 16:20:22;;;;;;;18.10;7.40;;;;;;;-2.26;100.00;101642.33;105669;1264;71564;-70
2024/01/09 16:23:11;;;;;;;16.90;7.70;;;;;;;-2.26;100.00;101640.42;105882;1261;1003541;-68
2024/01/09 16:26:01;;;;;;;15.50;6.40;;;;;;;-2.26;100.00;101637.64;106372;1259;72520;-66
2024/01/09 16:28:50;;;;;;;17.20;6.90;;;;;;;-2.26;100.00;101643.73;106344;1254;59349;-67
2024/01/09 16:31:38;;;;;;;15.30;6.60;;;;;;;-2.26;100.00;101644.08;105128;1253;1003051;-65
2024/01/09 16:34:27;;;;;;;13.90;5.70;;;;;;;-2.25;100.00;101642.34;105975;1254;70505;-70
2024/01/09 16:37:17;;;;;;;14.50;6.10;;;;;;;-2.25;100.00;101644.08;105803;1253;68143;-66
2024/01/09 16:40:06;;;;;;;15.60;6.80;;;;;;;-2.23;100.00;101643.55;104932;1259;1003095;-66
2024/01/09 16:42:58;;;;;;;18.80;8.50;;;;;;;-2.23;100.00;101641.98;106372;1253;59685;-64
2024/01/09 16:45:47;;;;;;;17.40;6.50;;;;;;;-2.21;100.00;101641.30;105909;1259;60814;-63
2024/01/09 16:48:36;;;;;;;18.10;7.30;;;;;;;-2.20;100.00;101649.64;106095;1258;71987;-65
2024/01/09 16:51:31;;;;;;;20.50;7.00;;;;;;;-2.20;100.00;101643.38;105897;1253;67057;-65
2024/01/09 16:54:20;;;;;;;19.40;7.90;;;;;;;-2.22;100.00;101647.20;105487;1254;73917;-66
2024/01/09 16:57:09;;;;;;;19.20;8.50;;;;;;;-2.20;100.00;101649.81;106444;1257;59208;-66
2024/01/09 16:59:57;;;;;;;17.90;7.50;;;;;;;-2.18;100.00;101649.81;105726;1256;59914;-68
2024/01/09 17:02:45;;;;;;;18.60;7.70;;;;;;;-2.20;100.00;101643.55;105961;1256;72686;-67
2024/01/09 17:05:33;;;;;;;21.10;8.80;;;;;;;-2.21;100.00;101643.55;105996;1256;68354;-68
2024/01/09 17:08:23;;;;;;;15.90;7.90;;;;;;;-2.24;100.00;101644.95;105626;1254;74268;-64
2024/01/09 17:11:14;;;;;;;18.50;8.40;;;;;;;-2.27;100.00;101644.76;105493;1253;1002995;-65
2024/01/09 17:14:04;;;;;;;15.50;7.20;;;;;;;-2.28;100.00;101643.20;105858;1251;59806;-68
2024/01/09 17:16:54;;;;;;;14.00;6.20;;;;;;;-2.28;100.00;101644.95;105172;1252;1003758;-63
2024/01/09 17:19:43;;;;;;;17.00;6.60;;;;;;;-2.30;100.00;101646.51;105729;1254;68518;-64
2024/01/09 17:22:32;;;;;;;20.90;7.70;;;;;;;-2.32;100.00;101645.80;105895;1255;72955;-65
2024/01/09 17:25:20;;;;;;;21.00;8.10;;;;;;;-2.34;100.00;101638.85;105709;1253;59365;-65
2024/01/09 17:28:09;;;;;;;19.40;8.50;;;;;;;-2.33;100.00;101640.60;105951;1255;60772;-64
2024/01/09 17:30:59;;;;;;;19.70;7.90;;;;;;;-2.32;100.00;101643.02;106009;1251;72897;-66
2024/01/09 17:33:47;;;;;;;19.00;8.10;;;;;;;-2.32;100.00;101644.59;105883;1259;68364;-66
2024/01/09 17:36:38;;;;;;;18.80;8.20;;;;;;;-2.32;100.00;101636.08;105821;1252;74197;-63
2024/01/09 17:39:27;;;;;;;20.20;8.30;;;;;;;-2.33;100.00;101631.20;105809;1259;59862;-67
2024/01/09 17:42:16;;;;;;;19.80;8.40;;;;;;;-2.34;100.00;101631.38;106085;1258;60640;-66
2024/01/09 17:45:05;;;;;;;17.30;7.90;;;;;;;-2.34;100.00;101624.08;105625;1254;71604;-64
2024/01/09 17:47:54;;;;;;;19.40;9.20;;;;;;;-2.34;100.00;101624.23;105841;1256;69249;-66
2024/01/09 17:50:42;;;;;;;20.10;8.10;;;;;;;-2.32;100.00;101627.90;105805;1257;74292;-65
2024/01/09 17:53:31;;;;;;;15.20;6.70;;;;;;;-2.32;100.00;101631.20;105778;1259;59135;-68
2024/01/09 17:56:21;;;;;;;18.20;7.90;;;;;;;-2.32;100.00;101621.30;107167;1251;58792;-68
2024/01/09 17:59:10;;;;;;;22.80;8.70;;;;;;;-2.31;100.00;101627.20;106188;1254;71881;-65
2024/01/09 18:02:00;;;;;;;22.00;8.90;;;;;;;-2.29;100.00;101626.86;106113;1256;68401;-68
2024/01/09 18:04:48;;;;;;;19.40;7.70;;;;;;;-2.25;100.00;101626.51;105801;1256;72574;-66
2024/01/09 18:07:38;;;;;;;19.40;7.90;;;;;;;-2.23;100.00;101614.16;105991;1257;59233;-66
2024/01/09 18:10:26;;;;;;;18.10;7.60;;;;;;;-2.21;100.00;101616.95;106097;1256;59731;-69
2024/01/09 18:13:19;;;;;;;18.40;8.10;;;;;;;-2.21;100.00;101621.81;106038;1253;72331;-65
2024/01/09 18:16:10;;;;;;;18.50;7.50;;;;;;;-2.21;100.00;101614.17;105879;1259;66298;-65
2024/01/09 18:18:58;;;;;;;17.70;8.00;;;;;;;-2.24;100.00;101619.56;105928;1267;73204;-65
2024/01/09 18:21:49;;;;;;;19.20;7.70;;;;;;;-2.25;100.00;101611.91;105854;1259;59322;-67
2024/01/09 18:24:41;;;;;;;15.80;7.00;;;;;;;-2.26;100.00;101612.25;105736;1254;61067;-68
2024/01/09 18:27:30;;;;;;;18.40;8.50;;;;;;;-2.27;100.00;101614.69;105973;1254;71589;-67
2024/01/09 18:30:19;;;;;;;21.70;8.70;;;;;;;-2.28;100.00;101619.38;106030;1252;69535;-67
2024/01/09 18:33:09;;;;;;;21.60;8.90;;;;;;;-2.29;100.00;101613.64;105979;1254;71616;-67
2024/01/09 18:36:00;;;;;;;19.80;7.40;;;;;;;-2.30;100.00;101615.73;105898;1259;59397;-69
2024/01/09 18:38:50;;;;;;;15.30;6.50;;;;;;;-2.31;100.00;101618.34;105927;1254;60980;-66
2024/01/09 18:41:40;;;;;;;18.40;7.60;;;;;;;-2.31;100.00;101615.73;106100;1255;73904;-68
2024/01/09 18:44:29;;;;;;;20.30;8.40;;;;;;;-2.30;100.00;101611.04;105641;1254;68266;-67
2024/01/09 18:47:17;;;;;;;19.40;7.50;;;;;;;-2.30;100.00;101612.25;105967;1257;73880;-64
2024/01/09 18:50:08;;;;;;;15.80;6.20;;;;;;;-2.31;100.00;101608.77;106181;1256;59352;-67
2024/01/09 18:52:57;;;;;;;17.40;7.10;;;;;;;-2.31;100.00;101616.77;106219;1256;60023;-66
2024/01/09 18:55:47;;;;;;;22.40;9.70;;;;;;;-2.30;100.00;101608.61;106021;1252;72803;-66
2024/01/09 18:58:36;;;;;;;19.00;8.00;;;;;;;-2.30;100.00;101605.30;105877;1256;66752;-65
2024/01/09 19:01:26;;;;;;;18.40;8.30;;;;;;;-2.30;100.00;101603.55;106114;1258;72122;-66
2024/01/09 19:04:17;;;;;;;14.50;7.30;;;;;;;-2.30;100.00;101599.91;107222;1253;59228;-68
2024/01/09 19:07:06;;;;;;;15.10;6.60;;;;;;;-2.29;100.00;101600.79;106886;1254;60737;-70
2024/01/09 19:09:54;;;;;;;18.10;7.40;;;;;;;-2.31;100.00;101604.09;106369;1254;73561;-66
2024/01/09 19:12:43;;;;;;;18.80;7.60;;;;;;;-2.31;100.00;101604.95;105988;1258;68176;-67
2024/01/09 19:15:31;;;;;;;24.30;9.40;;;;;;;-2.31;100.00;101601.12;105592;1256;73624;-65
2024/01/09 19:18:20;;;;;;;21.50;8.30;;;;;;;-2.32;100.00;101600.07;105836;1252;60984;-65
2024/01/09 19:21:08;;;;;;;20.80;8.80;;;;;;;-2.34;100.00;101605.64;106025;1255;59476;-67
2024/01/09 19:23:56;;;;;;;17.70;7.10;;;;;;;-2.35;100.00;101596.77;105989;1251;72886;-66
2024/01/09 19:26:46;;;;;;;21.40;8.40;;;;;;;-2.37;100.00;101602.70;105758;1252;67112;-66
2024/01/09 19:29:34;;;;;;;19.60;8.70;;;;;;;-2.39;100.00;101598.16;105725;1259;71604;-66
2024/01/09 19:32:24;;;;;;;20.10;7.70;;;;;;;-2.39;100.00;101594.52;105965;1254;59336;-67
2024/01/09 19:35:13;;;;;;;20.60;8.90;;;;;;;-2.42;100.00;101591.39;105996;1256;59966;-65
2024/01/09 19:38:04;;;;;;;22.40;9.50;;;;;;;-2.44;100.00;101599.91;106047;1256;72852;-67
2024/01/09 19:40:52;;;;;;;23.20;9.30;;;;;;;-2.42;100.00;101591.20;105871;1256;69351;-65
2024/01/09 19:43:40;;;;;;;21.10;9.20;;;;;;;-2.41;100.00;101588.42;105749;1255;74139;-67
2024/01/09 19:46:29;;;;;;;22.60;9.10;;;;;;;-2.41;100.00;101589.46;105904;1257;59331;-66
2024/01/09 19:49:17;;;;;;;23.90;9.80;;;;;;;-2.40;100.00;101596.08;105921;1254;60056;-65
2024/01/09 19:52:06;;;;;;;18.20;8.20;;;;;;;-2.40;100.00;101597.11;106028;1256;72833;-67
2024/01/09 19:54:54;;;;;;;17.10;7.00;;;;;;;-2.40;100.00;101589.64;105195;1251;1002842;-66
2024/01/09 19:57:42;;;;;;;19.70;8.70;;;;;;;-2.41;100.00;101587.91;106637;1251;73050;-65
2024/01/09 20:00:31;;;;;;;20.30;8.30;;;;;;;-2.43;100.00;101588.79;106424;1254;59214;-64
2024/01/09 20:03:22;;;;;;;20.80;8.30;;;;;;;-2.43;100.00;101586.34;106355;1252;61236;-67
2024/01/09 20:06:23;;;;;;;18.00;7.40;;;;;;;-2.49;100.00;101573.66;105904;1256;72783;-64
2024/01/09 20:09:12;;;;;;;20.10;8.60;;;;;;;-2.47;100.00;101582.88;105889;1257;68756;-65
2024/01/09 20:12:02;;;;;;;20.70;7.50;;;;;;;-2.47;100.00;101585.13;106243;1254;73369;-64
2024/01/09 20:14:51;;;;;;;22.50;8.10;;;;;;;-2.47;100.00;101580.77;105838;1259;59198;-67
2024/01/09 20:17:41;;;;;;;20.10;7.90;;;;;;;-2.46;100.00;101580.09;106131;1254;59634;-67
2024/01/09 20:20:30;;;;;;;21.70;8.40;;;;;;;-2.46;100.00;101572.09;105890;1257;71706;-65
2024/01/09 20:23:18;;;;;;;21.50;9.80;;;;;;;-2.47;100.00;101572.95;105655;1259;67319;-68
2024/01/09 20:26:07;;;;;;;24.20;9.60;;;;;;;-2.47;100.00;101576.42;106143;1257;74131;-71
2024/01/09 20:28:56;;;;;;;17.00;7.60;;;;;;;-2.45;100.00;101582.01;105512;1253;59324;-69
2024/01/09 20:31:45;;;;;;;23.80;9.30;;;;;;;-2.43;100.00;101588.43;105696;1254;60958;-67